Time;durP1;ratioP1;P1;durP2;ratioP2;P2;SDS_P1;SDS_P2;PMS_P1;PMS_P2;Temp;Humidity;BMP_temperature;BMP_pressure;BME280_temperature;BME280_humidity;BME280_pressure;Samples;Min_cycle;Max_cycle;Signal;HPM_P1;HPM_P2
2021/03/30 00:00:16;;;;;;;8.48;4.30;;;11.30;99.90;;;;;;5072640;28;20044;-73
2021/03/30 00:02:42;;;;;;;7.40;3.60;;;11.30;99.90;;;;;;5055431;28;20039;-72
2021/03/30 00:05:08;;;;;;;10.32;4.50;;;11.20;99.90;;;;;;5054432;28;20024;-72
2021/03/30 00:07:34;;;;;;;8.40;4.60;;;11.20;99.90;;;;;;5070958;28;20381;-72
2021/03/30 00:09:59;;;;;;;11.70;3.72;;;11.10;99.90;;;;;;5072018;28;20024;-71
2021/03/30 00:12:25;;;;;;;12.10;3.45;;;11.10;99.90;;;;;;5069110;28;20440;-72
2021/03/30 00:14:50;;;;;;;7.68;3.85;;;11.10;99.90;;;;;;5071489;28;20339;-72
2021/03/30 00:17:16;;;;;;;9.00;3.90;;;11.00;99.90;;;;;;5069284;28;20400;-72
2021/03/30 00:19:42;;;;;;;10.02;4.50;;;10.90;99.90;;;;;;5073643;28;20550;-72
2021/03/30 00:22:07;;;;;;;7.15;3.92;;;10.80;99.90;;;;;;5055391;28;20499;-72
2021/03/30 00:24:33;;;;;;;7.85;3.88;;;10.80;99.90;;;;;;5073500;28;20439;-72
2021/03/30 00:26:58;;;;;;;7.43;3.65;;;10.80;99.90;;;;;;5072928;28;20070;-71
2021/03/30 00:29:24;;;;;;;6.63;4.38;;;10.70;99.90;;;;;;5072246;28;20035;-72
2021/03/30 00:31:50;;;;;;;8.65;3.70;;;10.70;99.90;;;;;;5071593;28;20028;-73
2021/03/30 00:34:15;;;;;;;9.38;3.97;;;10.70;99.90;;;;;;5072274;28;20043;-72
2021/03/30 00:36:41;;;;;;;8.43;4.30;;;10.70;99.90;;;;;;5054517;28;20107;-72
2021/03/30 00:39:07;;;;;;;7.35;4.32;;;10.70;99.90;;;;;;5054115;28;20040;-72
2021/03/30 00:41:40;;;;;;;7.57;3.83;;;10.70;99.90;;;;;;5057812;28;20450;-72
2021/03/30 00:44:12;;;;;;;14.77;3.80;;;10.70;99.90;;;;;;5071791;28;20123;-72
2021/03/30 00:46:40;;;;;;;11.98;4.55;;;10.70;99.90;;;;;;5072347;28;20031;-71
2021/03/30 00:49:06;;;;;;;6.43;2.70;;;10.60;99.90;;;;;;5072888;28;20025;-72
2021/03/30 00:51:31;;;;;;;8.32;3.67;;;10.60;99.90;;;;;;5072120;28;20263;-72
2021/03/30 00:53:58;;;;;;;6.30;3.63;;;10.50;99.90;;;;;;5072184;28;20016;-72
2021/03/30 00:56:25;;;;;;;10.38;3.97;;;10.50;99.90;;;;;;5069945;28;20374;-72
2021/03/30 00:58:54;;;;;;;9.25;3.83;;;10.50;99.90;;;;;;5044495;28;20024;-72
2021/03/30 01:01:20;;;;;;;6.68;4.07;;;10.40;99.90;;;;;;5044922;28;20029;-72
2021/03/30 01:03:45;;;;;;;6.85;3.95;;;10.40;99.90;;;;;;5063369;28;20480;-72
2021/03/30 01:06:11;;;;;;;11.40;3.92;;;10.30;99.90;;;;;;5063556;28;20036;-72
2021/03/30 01:09:06;;;;;;;8.30;4.18;;;10.30;99.90;;;;;;5069506;28;20062;-72
2021/03/30 01:11:52;;;;;;;7.10;4.20;;;10.20;99.90;;;;;;5070202;28;20376;-72
2021/03/30 01:14:23;;;;;;;11.23;5.15;;;10.20;99.90;;;;;;5068705;28;20032;-72
2021/03/30 01:16:57;;;;;;;14.15;5.65;;;10.10;99.90;;;;;;5071333;28;20031;-72
2021/03/30 01:19:38;;;;;;;10.05;4.40;;;10.10;99.90;;;;;;5063157;28;20381;-72
2021/03/30 01:22:40;;;;;;;6.88;4.13;;;10.10;99.90;;;;;;5072637;28;20051;-72
2021/03/30 01:25:07;;;;;;;7.10;4.20;;;10.10;99.90;;;;;;5014617;28;20061;-72
2021/03/30 01:27:41;;;;;;;14.52;4.40;;;10.10;99.90;;;;;;5061039;28;20025;-72
2021/03/30 01:30:08;;;;;;;7.15;4.35;;;10.00;99.90;;;;;;5053991;28;20137;-72
2021/03/30 01:32:42;;;;;;;8.97;4.37;;;10.00;99.90;;;;;;5071410;28;20469;-72
2021/03/30 01:35:11;;;;;;;8.30;4.18;;;10.00;99.90;;;;;;5053996;28;20020;-72
2021/03/30 01:37:42;;;;;;;10.30;5.10;;;10.00;99.90;;;;;;5068805;28;20099;-72
2021/03/30 01:40:09;;;;;;;8.80;5.15;;;9.90;99.90;;;;;;5052194;28;20028;-72
2021/03/30 01:42:37;;;;;;;12.80;4.20;;;9.90;99.90;;;;;;5071448;28;20131;-71
2021/03/30 01:45:04;;;;;;;10.60;4.57;;;9.90;99.90;;;;;;5065541;28;20032;-71
2021/03/30 01:47:31;;;;;;;10.18;4.90;;;9.80;99.90;;;;;;5058459;28;20024;-72
2021/03/30 01:49:58;;;;;;;8.95;4.13;;;9.80;99.90;;;;;;5056681;28;20037;-72
2021/03/30 01:52:24;;;;;;;11.15;4.30;;;9.70;99.90;;;;;;5071843;28;20028;-72
2021/03/30 01:54:50;;;;;;;8.00;4.97;;;9.60;99.90;;;;;;5050371;28;20049;-72
2021/03/30 01:57:25;;;;;;;6.10;4.13;;;9.60;99.90;;;;;;5071869;28;20028;-72
2021/03/30 01:59:52;;;;;;;7.18;4.40;;;9.50;99.90;;;;;;5072171;28;20037;-72
2021/03/30 02:02:19;;;;;;;10.02;4.05;;;9.50;99.90;;;;;;5071773;28;20419;-72
2021/03/30 02:04:46;;;;;;;7.32;5.22;;;9.50;99.90;;;;;;5072323;28;20107;-72
2021/03/30 02:07:15;;;;;;;7.97;5.07;;;9.40;99.90;;;;;;5067945;28;20016;-72
2021/03/30 02:09:45;;;;;;;12.15;4.80;;;9.40;99.90;;;;;;5059894;28;20025;-72
2021/03/30 02:12:14;;;;;;;11.68;4.63;;;9.30;99.90;;;;;;5043565;28;20059;-72
2021/03/30 02:14:40;;;;;;;8.68;5.05;;;9.30;99.90;;;;;;5052482;28;20021;-72
2021/03/30 02:17:39;;;;;;;10.07;5.35;;;9.20;99.90;;;;;;5064364;28;20446;-72
2021/03/30 02:20:11;;;;;;;7.60;4.30;;;9.20;99.90;;;;;;5049870;28;20075;-72
2021/03/30 02:22:42;;;;;;;10.85;4.57;;;9.20;99.90;;;;;;5072448;28;20028;-72
2021/03/30 02:25:08;;;;;;;12.52;4.93;;;9.10;99.90;;;;;;5072123;28;20442;-72
2021/03/30 02:27:39;;;;;;;7.18;4.50;;;9.10;99.90;;;;;;5063326;28;20557;-72
2021/03/30 02:30:07;;;;;;;11.30;5.32;;;9.10;99.90;;;;;;5075360;28;20090;-72
2021/03/30 02:32:34;;;;;;;9.25;4.88;;;9.10;99.90;;;;;;5074781;28;20465;-71
2021/03/30 02:35:04;;;;;;;8.68;5.40;;;9.20;99.90;;;;;;5075928;28;20028;-72
2021/03/30 02:37:30;;;;;;;9.27;5.10;;;9.20;99.90;;;;;;5056485;28;20016;-72
2021/03/30 02:39:58;;;;;;;9.75;5.47;;;9.20;99.90;;;;;;5073787;28;20066;-72
2021/03/30 02:42:24;;;;;;;;;;;9.20;99.90;;;;;;5049728;28;20069;-72
2021/03/30 02:44:51;;;;;;;12.55;5.50;;;9.20;99.90;;;;;;5075858;28;20353;-72
2021/03/30 02:47:19;;;;;;;9.27;4.93;;;9.20;99.90;;;;;;5056238;28;20499;-71
2021/03/30 02:49:45;;;;;;;12.32;5.05;;;9.10;99.90;;;;;;5072294;28;20033;-71
2021/03/30 02:52:13;;;;;;;12.63;5.70;;;9.10;99.90;;;;;;5074562;28;20469;-72
2021/03/30 02:54:39;;;;;;;17.92;5.45;;;9.10;99.90;;;;;;5064616;28;20055;-71
2021/03/30 02:57:06;;;;;;;10.43;4.75;;;9.10;99.90;;;;;;5075189;28;20472;-71
2021/03/30 02:59:33;;;;;;;11.70;5.35;;;9.00;99.90;;;;;;5070002;28;20021;-71
2021/03/30 03:01:59;;;;;;;8.13;4.72;;;9.00;99.90;;;;;;5047849;28;20029;-71
2021/03/30 03:04:26;;;;;;;13.10;5.38;;;9.00;99.90;;;;;;5074938;28;20039;-71
2021/03/30 03:06:53;;;;;;;10.80;6.15;;;9.00;99.90;;;;;;5074737;28;20035;-71
2021/03/30 03:09:19;;;;;;;11.25;5.88;;;8.90;99.90;;;;;;5073745;28;20099;-72
2021/03/30 03:11:47;;;;;;;6.95;4.75;;;8.90;99.90;;;;;;5071837;28;20017;-71
2021/03/30 03:14:13;;;;;;;10.52;4.70;;;8.80;99.90;;;;;;5053950;28;20059;-71
2021/03/30 03:16:41;;;;;;;11.18;5.85;;;8.80;99.90;;;;;;5066335;28;20424;-72
2021/03/30 03:19:10;;;;;;;13.23;4.65;;;8.70;99.90;;;;;;5060760;28;20520;-72
2021/03/30 03:21:37;;;;;;;11.60;5.97;;;8.70;99.90;;;;;;5057593;28;20381;-72
2021/03/30 03:24:04;;;;;;;13.95;6.72;;;8.70;99.90;;;;;;5052459;28;20131;-72
2021/03/30 03:26:32;;;;;;;10.80;5.50;;;8.70;99.90;;;;;;5056285;28;20039;-72
2021/03/30 03:28:58;;;;;;;9.25;5.50;;;8.70;99.90;;;;;;5073887;28;20024;-72
2021/03/30 03:31:29;;;;;;;11.27;5.50;;;8.70;99.90;;;;;;5073132;28;20100;-71
2021/03/30 03:34:02;;;;;;;8.05;5.10;;;8.70;99.90;;;;;;5042087;28;20021;-71
2021/03/30 03:36:45;;;;;;;9.65;5.10;;;8.60;99.90;;;;;;5071168;28;20040;-71
2021/03/30 03:39:14;;;;;;;14.95;5.65;;;8.60;99.90;;;;;;5073122;28;20449;-72
2021/03/30 03:41:41;;;;;;;14.25;5.32;;;8.60;99.90;;;;;;5055868;28;20062;-72
2021/03/30 03:44:08;;;;;;;14.43;6.23;;;8.60;99.90;;;;;;5055322;28;20071;-72
2021/03/30 03:46:34;;;;;;;11.93;5.35;;;8.60;99.90;;;;;;5074183;28;20033;-71
2021/03/30 03:49:00;;;;;;;13.90;6.10;;;8.60;99.90;;;;;;5073393;28;20419;-71
2021/03/30 03:51:32;;;;;;;14.65;5.93;;;8.60;99.90;;;;;;5058673;28;20094;-72
2021/03/30 03:54:00;;;;;;;12.68;5.90;;;8.60;99.90;;;;;;5049172;28;20035;-72
2021/03/30 03:56:47;;;;;;;10.90;5.43;;;8.60;99.90;;;;;;5075141;28;20048;-71
2021/03/30 03:59:23;;;;;;;14.32;6.30;;;8.60;99.90;;;;;;5075969;28;20025;-72
2021/03/30 04:02:10;;;;;;;12.60;6.30;;;8.50;99.90;;;;;;5073458;28;20051;-72
2021/03/30 04:04:58;;;;;;;10.45;4.65;;;8.40;99.90;;;;;;5069772;28;20041;-72
2021/03/30 04:07:29;;;;;;;11.73;6.05;;;8.30;99.90;;;;;;5075253;28;20418;-72
2021/03/30 04:09:56;;;;;;;12.25;6.50;;;8.20;99.90;;;;;;5056392;28;20020;-71
2021/03/30 04:12:24;;;;;;;13.57;7.03;;;8.10;99.90;;;;;;5056012;28;20031;-71
2021/03/30 04:14:50;;;;;;;10.45;6.32;;;8.00;99.90;;;;;;5051452;28;20137;-72
2021/03/30 04:17:17;;;;;;;14.98;7.00;;;8.00;99.90;;;;;;5055037;28;20040;-72
2021/03/30 04:19:45;;;;;;;11.13;5.97;;;7.90;99.90;;;;;;5072217;28;20031;-72
2021/03/30 04:22:13;;;;;;;11.30;5.33;;;7.80;99.90;;;;;;5054986;28;20389;-72
2021/03/30 04:24:39;;;;;;;;;;;7.80;99.90;;;;;;5055382;28;20515;-71
2021/03/30 04:27:11;;;;;;;24.90;8.15;;;7.80;99.90;;;;;;5052740;28;19908;-71
2021/03/30 04:29:41;;;;;;;17.15;7.28;;;7.80;99.90;;;;;;5051574;28;20123;-71
2021/03/30 04:32:08;;;;;;;18.65;7.53;;;7.70;99.90;;;;;;5065182;28;20428;-71
2021/03/30 04:34:34;;;;;;;14.10;7.15;;;7.60;99.90;;;;;;5042718;28;20033;-72
2021/03/30 04:36:59;;;;;;;11.57;6.65;;;7.60;99.90;;;;;;5050086;28;20109;-71
2021/03/30 04:39:25;;;;;;;16.98;7.78;;;7.50;99.90;;;;;;5053362;28;20021;-72
2021/03/30 04:41:51;;;;;;;16.00;7.60;;;7.50;99.90;;;;;;5072752;28;20435;-71
2021/03/30 04:44:16;;;;;;;14.65;7.38;;;7.50;99.90;;;;;;5072853;28;20032;-71
2021/03/30 04:46:42;;;;;;;19.02;7.35;;;7.50;99.90;;;;;;5061637;28;20074;-71
2021/03/30 04:49:08;;;;;;;17.42;8.07;;;7.40;99.90;;;;;;5072088;28;20075;-72
2021/03/30 04:51:33;;;;;;;18.92;8.55;;;7.50;99.90;;;;;;5044000;28;20032;-72
2021/03/30 04:53:59;;;;;;;29.85;9.80;;;7.40;99.90;;;;;;5072890;28;20384;-72
2021/03/30 04:56:25;;;;;;;23.52;9.85;;;7.40;99.90;;;;;;5071982;28;20051;-72
2021/03/30 04:58:50;;;;;;;20.98;9.07;;;7.50;99.90;;;;;;5070554;28;20024;-72
2021/03/30 05:01:16;;;;;;;17.35;8.45;;;7.50;99.90;;;;;;5061027;28;20396;-72
2021/03/30 05:03:42;;;;;;;18.13;8.48;;;7.50;99.90;;;;;;5063177;28;20078;-72
2021/03/30 05:06:07;;;;;;;19.48;9.25;;;7.40;99.90;;;;;;5054423;28;20028;-72
2021/03/30 05:08:33;;;;;;;21.33;8.85;;;7.40;99.90;;;;;;5071011;28;20099;-72
2021/03/30 05:10:59;;;;;;;15.13;8.25;;;7.30;99.90;;;;;;5054955;28;20024;-73
2021/03/30 05:13:25;;;;;;;22.30;9.10;;;7.30;99.90;;;;;;5062076;28;20025;-73
2021/03/30 05:15:51;;;;;;;18.15;8.70;;;7.40;99.90;;;;;;5053332;28;20033;-72
2021/03/30 05:18:16;;;;;;;21.25;9.02;;;7.40;99.90;;;;;;5071974;28;20031;-72
2021/03/30 05:20:42;;;;;;;20.30;9.13;;;7.40;99.90;;;;;;5063297;28;20056;-72
2021/03/30 05:23:08;;;;;;;23.27;9.82;;;7.40;99.90;;;;;;5065048;28;20055;-72
2021/03/30 05:25:34;;;;;;;27.05;9.57;;;7.50;99.90;;;;;;5071631;28;20035;-72
2021/03/30 05:28:00;;;;;;;26.30;10.70;;;7.60;99.90;;;;;;5071357;28;20021;-73
2021/03/30 05:30:25;;;;;;;16.85;9.18;;;7.70;99.90;;;;;;5071509;28;20099;-72
2021/03/30 05:32:51;;;;;;;23.52;9.85;;;7.70;99.90;;;;;;5068456;28;20029;-72
2021/03/30 05:35:16;;;;;;;16.80;8.73;;;7.60;99.90;;;;;;5066883;28;20386;-72
2021/03/30 05:37:43;;;;;;;15.48;8.13;;;7.60;99.90;;;;;;5065996;28;20099;-71
2021/03/30 05:40:14;;;;;;;20.67;8.65;;;7.50;99.90;;;;;;5072065;28;20545;-72
2021/03/30 05:42:40;;;;;;;18.38;8.95;;;7.50;99.90;;;;;;5053007;28;20033;-71
2021/03/30 05:45:07;;;;;;;18.40;8.23;;;7.60;99.90;;;;;;5071637;28;20040;-71
2021/03/30 05:47:34;;;;;;;14.73;8.73;;;7.60;99.90;;;;;;5070493;28;20028;-71
2021/03/30 05:50:00;;;;;;;21.95;9.70;;;7.60;99.90;;;;;;5068394;28;20279;-72
2021/03/30 05:55:22;;;;;;;22.05;8.95;;;7.80;99.90;;;;;;5070749;28;20438;-72
2021/03/30 05:57:50;;;;;;;18.42;9.00;;;7.90;99.90;;;;;;5070966;28;20037;-72
2021/03/30 06:00:16;;;;;;;22.63;10.35;;;8.00;99.90;;;;;;5071591;28;20114;-72
2021/03/30 06:02:45;;;;;;;22.95;10.10;;;8.10;99.90;;;;;;5071933;28;20460;-72
2021/03/30 06:05:15;;;;;;;25.08;10.13;;;8.10;99.90;;;;;;5075636;28;20033;-73
2021/03/30 06:07:42;;;;;;;21.67;9.57;;;8.20;99.90;;;;;;5079247;28;20024;-72
2021/03/30 06:10:16;;;;;;;24.00;10.65;;;8.30;99.90;;;;;;5082119;28;20025;-72
2021/03/30 06:12:43;;;;;;;27.65;11.65;;;8.30;99.90;;;;;;5081051;28;20020;-72
2021/03/30 06:15:10;;;;;;;23.73;11.00;;;8.50;99.90;;;;;;5060907;28;20027;-71
2021/03/30 06:17:40;;;;;;;20.42;10.88;;;8.70;99.90;;;;;;5061754;28;20040;-72
2021/03/30 06:20:08;;;;;;;26.67;11.13;;;8.80;99.90;;;;;;5080162;28;20040;-72
2021/03/30 06:22:46;;;;;;;25.20;11.15;;;9.00;99.90;;;;;;5080377;28;20047;-72
2021/03/30 06:25:11;;;;;;;;;;;9.00;99.90;;;;;;5075211;28;20152;-72
2021/03/30 06:27:37;;;;;;;24.95;11.60;;;9.20;99.90;;;;;;5060198;28;19954;-73
2021/03/30 06:30:05;;;;;;;23.33;11.20;;;9.20;99.90;;;;;;5067789;28;20035;-72
2021/03/30 06:32:32;;;;;;;22.85;11.43;;;9.30;99.90;;;;;;5068915;28;20389;-72
2021/03/30 06:35:12;;;;;;;19.60;10.38;;;9.40;99.90;;;;;;5074782;28;20552;-71
2021/03/30 06:37:41;;;;;;;21.77;11.07;;;9.50;99.90;;;;;;5069243;28;20039;-71
2021/03/30 06:40:12;;;;;;;31.35;12.07;;;9.60;99.90;;;;;;5067373;28;20063;-72
2021/03/30 06:45:17;;;;;;;33.08;13.60;;;9.90;99.90;;;;;;5074850;28;20040;-71
2021/03/30 06:47:45;;;;;;;30.85;11.35;;;10.00;99.90;;;;;;5074986;28;20021;-72
2021/03/30 06:50:27;;;;;;;35.55;12.07;;;10.30;99.90;;;;;;5074971;28;20031;-72
2021/03/30 06:52:55;;;;;;;27.50;12.25;;;10.50;99.90;;;;;;5075543;28;20021;-72
2021/03/30 06:55:25;;;;;;;;;;;10.60;99.90;;;;;;5076189;28;20044;-73
2021/03/30 06:57:51;;;;;;;24.98;12.30;;;10.80;99.90;;;;;;5054188;28;20359;-72
2021/03/30 07:00:27;;;;;;;28.83;11.80;;;11.00;99.90;;;;;;5066077;28;20025;-72
2021/03/30 07:02:56;;;;;;;29.85;12.32;;;11.10;99.90;;;;;;5059477;28;20016;-72
2021/03/30 07:05:26;;;;;;;23.05;12.40;;;11.30;99.90;;;;;;5056143;28;20473;-72
2021/03/30 07:07:57;;;;;;;28.02;13.77;;;11.50;99.90;;;;;;5049241;28;20103;-72
2021/03/30 07:10:23;;;;;;;25.95;12.60;;;11.60;99.90;;;;;;5068099;28;20012;-73
2021/03/30 07:12:51;;;;;;;32.30;12.80;;;11.70;99.90;;;;;;5065525;28;20036;-72
2021/03/30 07:15:22;;;;;;;27.50;13.63;;;11.70;99.90;;;;;;5069212;28;20111;-74
2021/03/30 07:17:58;;;;;;;31.80;15.18;;;11.70;99.90;;;;;;5050456;28;20028;-72
2021/03/30 07:20:25;;;;;;;31.77;14.05;;;11.80;99.90;;;;;;5067883;28;20077;-72
2021/03/30 07:22:52;;;;;;;38.83;13.20;;;11.70;99.90;;;;;;5054896;28;20044;-72
2021/03/30 07:25:23;;;;;;;31.00;13.98;;;11.80;99.90;;;;;;5072866;28;20103;-73
2021/03/30 07:28:00;;;;;;;27.65;13.23;;;11.70;99.90;;;;;;5055512;28;20024;-73
2021/03/30 07:30:27;;;;;;;24.98;13.25;;;11.80;99.90;;;;;;5052374;28;20115;-72
2021/03/30 07:33:06;;;;;;;24.92;13.32;;;11.80;99.90;;;;;;5074143;28;20027;-73
2021/03/30 07:35:36;;;;;;;32.60;14.95;;;12.00;99.90;;;;;;5069955;28;20060;-73
2021/03/30 07:38:17;;;;;;;27.65;14.38;;;12.10;99.90;;;;;;5065726;28;20032;-73
2021/03/30 07:40:43;;;;;;;34.13;13.48;;;12.20;99.90;;;;;;5056137;28;20024;-73
2021/03/30 07:43:11;;;;;;;27.85;13.15;;;12.30;99.90;;;;;;5071889;28;20112;-73
2021/03/30 07:45:42;;;;;;;29.20;13.15;;;12.40;99.90;;;;;;5064933;28;20047;-73
2021/03/30 07:48:13;;;;;;;29.60;13.88;;;12.70;99.90;;;;;;5065380;28;20074;-72
2021/03/30 07:50:59;;;;;;;29.40;12.95;;;12.80;99.90;;;;;;5069478;28;20059;-73
2021/03/30 07:53:50;;;;;;;31.00;14.35;;;12.90;99.90;;;;;;5043199;28;20063;-73
2021/03/30 07:56:25;;;;;;;27.75;14.38;;;13.10;99.90;;;;;;5064513;28;20410;-72
2021/03/30 07:58:52;;;;;;;36.53;14.18;;;13.20;99.90;;;;;;5062581;28;20107;-73
2021/03/30 08:01:20;;;;;;;33.20;13.73;;;13.30;99.90;;;;;;5068739;28;20507;-72
2021/03/30 08:03:47;;;;;;;;;;;13.40;99.90;;;;;;5061843;28;20053;-72
2021/03/30 08:06:36;;;;;;;39.58;14.73;;;13.40;99.90;;;;;;5043146;28;19912;-72
2021/03/30 08:09:14;;;;;;;28.85;12.93;;;13.60;99.90;;;;;;5062879;28;20470;-72
2021/03/30 08:11:40;;;;;;;34.33;14.95;;;13.80;99.90;;;;;;5065450;28;20342;-72
2021/03/30 08:14:19;;;;;;;36.58;14.13;;;13.80;99.90;;;;;;5049808;28;20032;-72
2021/03/30 08:16:52;;;;;;;28.58;14.57;;;14.00;99.90;;;;;;5051436;28;20040;-73
2021/03/30 08:19:19;;;;;;;34.28;13.38;;;14.10;99.90;;;;;;5064834;28;20017;-72
2021/03/30 08:22:08;;;;;;;33.17;15.57;;;14.20;99.90;;;;;;5071876;28;20067;-72
2021/03/30 08:24:46;;;;;;;32.63;14.52;;;14.40;99.90;;;;;;5061050;28;20481;-73
2021/03/30 08:27:30;;;;;;;30.23;14.10;;;14.50;99.90;;;;;;5071413;28;20021;-74
2021/03/30 08:29:56;;;;;;;34.00;13.68;;;14.50;99.90;;;;;;5051701;28;20032;-74
2021/03/30 08:32:24;;;;;;;36.75;14.25;;;14.60;99.90;;;;;;5068789;28;20112;-74
2021/03/30 08:34:50;;;;;;;;;;;14.70;99.90;;;;;;5062216;28;20477;-75
2021/03/30 08:37:16;;;;;;;31.42;14.25;;;14.90;99.90;;;;;;5056621;28;19920;-77
2021/03/30 08:39:43;;;;;;;27.88;12.77;;;15.00;99.90;;;;;;5073814;28;20556;-73
2021/03/30 08:42:13;;;;;;;26.40;12.90;;;15.20;99.90;;;;;;5079936;28;20029;-75
2021/03/30 08:44:45;;;;;;;29.10;12.93;;;15.30;99.90;;;;;;5063252;28;20118;-74
2021/03/30 08:47:26;;;;;;;27.27;12.80;;;15.30;99.90;;;;;;5061568;28;20416;-73
2021/03/30 08:50:24;;;;;;;30.23;15.10;;;15.50;99.90;;;;;;5075529;28;20035;-76
2021/03/30 08:52:57;;;;;;;30.70;13.18;;;15.60;99.90;;;;;;5080560;28;20124;-73
2021/03/30 08:55:31;;;;;;;29.90;13.57;;;15.80;99.90;;;;;;5081021;28;20052;-75
2021/03/30 08:57:59;;;;;;;27.88;12.93;;;15.90;99.90;;;;;;5073972;28;20077;-74
2021/03/30 09:00:26;;;;;;;30.58;14.02;;;16.00;99.90;;;;;;5081178;28;20036;-75
2021/03/30 09:03:03;;;;;;;25.85;13.30;;;16.10;99.90;;;;;;5084659;28;20058;-74
2021/03/30 09:05:38;;;;;;;27.30;12.38;;;16.20;99.90;;;;;;5085412;28;20028;-73
2021/03/30 09:08:05;;;;;;;26.42;12.60;;;16.30;99.90;;;;;;5087481;28;20032;-74
2021/03/30 09:10:31;;;;;;;27.20;13.57;;;16.30;99.40;;;;;;5082675;28;20021;-73
2021/03/30 09:13:16;;;;;;;32.70;13.75;;;16.40;99.60;;;;;;5085157;28;20055;-73
2021/03/30 09:15:43;;;;;;;24.73;12.68;;;16.50;99.90;;;;;;5082537;28;20025;-73
2021/03/30 09:18:10;;;;;;;29.27;12.73;;;16.60;99.30;;;;;;5078481;28;20032;-73
2021/03/30 09:20:37;;;;;;;24.90;13.57;;;16.80;99.10;;;;;;5055982;28;20032;-72
2021/03/30 09:23:23;;;;;;;34.67;13.65;;;17.00;99.00;;;;;;5070831;28;20029;-74
2021/03/30 09:25:52;;;;;;;24.77;12.13;;;17.20;98.50;;;;;;5076209;28;20036;-75
2021/03/30 09:28:20;;;;;;;32.08;13.20;;;17.40;98.60;;;;;;5072575;28;20385;-75
2021/03/30 09:30:47;;;;;;;27.10;14.18;;;17.60;98.00;;;;;;5058805;28;20032;-74
2021/03/30 09:33:13;;;;;;;22.42;12.30;;;17.70;97.60;;;;;;5072768;28;20020;-78
2021/03/30 09:35:39;;;;;;;24.97;11.67;;;17.80;97.20;;;;;;5068756;28;20043;-73
2021/03/30 09:38:05;;;;;;;28.08;13.18;;;17.90;97.10;;;;;;5054942;28;20087;-72
2021/03/30 09:40:36;;;;;;;24.15;12.27;;;17.90;96.30;;;;;;5075427;28;20029;-74
2021/03/30 09:43:06;;;;;;;24.33;12.65;;;17.90;96.60;;;;;;5075574;28;20074;-73
2021/03/30 09:45:33;;;;;;;24.13;13.50;;;18.00;97.00;;;;;;5072065;28;20025;-73
2021/03/30 09:48:01;;;;;;;28.50;13.15;;;18.10;96.50;;;;;;5052573;28;20064;-73
2021/03/30 09:50:28;;;;;;;29.88;13.48;;;18.40;96.90;;;;;;5071717;28;20028;-73
2021/03/30 09:53:05;;;;;;;26.50;13.80;;;18.60;96.10;;;;;;5057667;28;20032;-74
2021/03/30 09:55:39;;;;;;;24.20;13.63;;;18.70;95.70;;;;;;5057723;28;20025;-73
2021/03/30 09:58:12;;;;;;;27.02;12.77;;;18.90;95.90;;;;;;5073778;28;20320;-74
2021/03/30 10:00:41;;;;;;;25.25;12.35;;;19.10;95.50;;;;;;5058953;28;20388;-74
2021/03/30 10:03:09;;;;;;;28.60;11.10;;;19.10;94.40;;;;;;5041547;28;20408;-73
2021/03/30 10:05:36;;;;;;;25.48;11.07;;;19.10;94.10;;;;;;5075690;28;20047;-74
2021/03/30 10:08:03;;;;;;;23.10;10.95;;;19.20;94.00;;;;;;5055006;28;20111;-74
2021/03/30 10:10:43;;;;;;;28.03;10.87;;;19.30;93.20;;;;;;5075509;28;20020;-73
2021/03/30 10:13:26;;;;;;;17.23;8.68;;;19.40;93.60;;;;;;5056038;28;20036;-72
2021/03/30 10:15:53;;;;;;;23.10;11.27;;;19.60;92.10;;;;;;5074861;28;20027;-73
2021/03/30 10:18:22;;;;;;;26.08;11.35;;;19.60;91.90;;;;;;5076302;28;20028;-73
2021/03/30 10:20:48;;;;;;;18.05;9.15;;;19.80;90.90;;;;;;5075378;28;20477;-73
2021/03/30 10:23:20;;;;;;;16.67;8.38;;;19.90;91.10;;;;;;5075678;28;20028;-73
2021/03/30 10:25:46;;;;;;;21.75;9.50;;;20.00;91.20;;;;;;5063961;28;20039;-74
2021/03/30 10:28:23;;;;;;;15.90;8.50;;;20.10;90.30;;;;;;5049687;28;20473;-73
2021/03/30 10:30:52;;;;;;;18.87;9.00;;;20.20;90.00;;;;;;5074819;28;20031;-74
2021/03/30 10:33:41;;;;;;;17.90;8.77;;;20.30;89.40;;;;;;5073884;28;20271;-74
2021/03/30 10:36:09;;;;;;;15.65;6.72;;;20.30;87.80;;;;;;5051826;28;20380;-74
2021/03/30 10:38:36;;;;;;;14.05;7.68;;;20.30;87.00;;;;;;5055738;28;20385;-74
2021/03/30 10:41:06;;;;;;;15.68;6.75;;;20.40;87.70;;;;;;5073937;28;20020;-75
2021/03/30 10:43:32;;;;;;;13.95;8.05;;;20.40;87.90;;;;;;5073906;28;20480;-76
2021/03/30 10:45:58;;;;;;;20.50;8.98;;;20.60;86.20;;;;;;5073601;28;20036;-73
2021/03/30 10:48:24;;;;;;;15.13;8.05;;;20.70;87.30;;;;;;5060509;28;20035;-76
2021/03/30 10:50:54;;;;;;;22.65;9.38;;;20.80;86.30;;;;;;5073334;28;20472;-76
2021/03/30 10:53:20;;;;;;;18.70;9.15;;;21.00;85.80;;;;;;5074016;28;20028;-76
2021/03/30 10:55:47;;;;;;;17.92;8.85;;;21.10;85.90;;;;;;5058515;28;20059;-76
2021/03/30 10:58:14;;;;;;;33.40;10.15;;;21.10;84.10;;;;;;5059539;28;20380;-75
2021/03/30 11:00:41;;;;;;;20.10;8.75;;;21.20;85.50;;;;;;5073761;28;20040;-77
2021/03/30 11:03:07;;;;;;;18.23;10.02;;;21.20;83.90;;;;;;5069811;28;20472;-73
2021/03/30 11:05:35;;;;;;;19.30;8.75;;;21.20;83.70;;;;;;5073690;28;20060;-74
2021/03/30 11:08:01;;;;;;;16.48;8.27;;;21.30;84.40;;;;;;5072208;28;20020;-75
2021/03/30 11:10:27;;;;;;;15.55;8.00;;;21.40;81.50;;;;;;5063781;28;20119;-77
2021/03/30 11:12:53;;;;;;;20.58;9.45;;;21.50;83.00;;;;;;5060352;28;20103;-76
2021/03/30 11:15:18;;;;;;;18.27;9.13;;;21.50;82.90;;;;;;5073799;28;20113;-75
2021/03/30 11:17:44;;;;;;;22.75;10.15;;;21.50;82.30;;;;;;5072890;28;20446;-77
2021/03/30 11:20:12;;;;;;;24.20;10.05;;;21.50;82.60;;;;;;5074414;28;20111;-76
2021/03/30 11:22:42;;;;;;;21.33;9.57;;;21.60;83.10;;;;;;5054298;28;20038;-76
2021/03/30 11:25:09;;;;;;;15.68;8.98;;;21.70;82.00;;;;;;5064849;28;20127;-76
2021/03/30 11:27:36;;;;;;;22.38;8.60;;;21.80;80.20;;;;;;5067471;28;20107;-75
2021/03/30 11:30:08;;;;;;;18.98;9.32;;;21.80;81.90;;;;;;5055942;28;20048;-73
2021/03/30 11:35:21;;;;;;;19.38;8.57;;;21.90;79.90;;;;;;5073653;28;20117;-75
2021/03/30 11:37:53;;;;;;;14.30;9.50;;;22.00;78.50;;;;;;5071972;28;20028;-76
2021/03/30 11:40:18;;;;;;;24.45;8.73;;;22.10;78.20;;;;;;5073385;28;20032;-77
2021/03/30 11:42:44;;;;;;;19.30;8.00;;;22.20;77.40;;;;;;5072608;28;20036;-75
2021/03/30 11:45:10;;;;;;;18.00;7.47;;;22.30;77.10;;;;;;5054132;28;20067;-76
2021/03/30 11:47:37;;;;;;;14.60;6.32;;;22.30;75.10;;;;;;5068006;28;20028;-75
2021/03/30 11:50:05;;;;;;;17.67;7.03;;;22.30;75.80;;;;;;5053045;28;20116;-75
2021/03/30 11:52:31;;;;;;;18.85;8.20;;;22.20;75.40;;;;;;5054442;28;20062;-76
2021/03/30 11:54:57;;;;;;;12.88;6.25;;;22.30;76.40;;;;;;5072994;28;20036;-77
2021/03/30 11:57:22;;;;;;;14.43;7.68;;;22.40;74.10;;;;;;5053996;28;20037;-74
2021/03/30 11:59:48;;;;;;;13.70;8.13;;;22.30;72.30;;;;;;5054868;28;20108;-75
2021/03/30 12:02:13;;;;;;;21.27;9.48;;;22.20;73.60;;;;;;5049937;28;20036;-75
2021/03/30 12:04:39;;;;;;;14.35;8.13;;;22.20;75.00;;;;;;5072767;28;20043;-76
2021/03/30 12:07:05;;;;;;;19.08;8.60;;;22.40;73.60;;;;;;5054747;28;20029;-75
2021/03/30 12:09:30;;;;;;;15.52;8.55;;;22.20;74.40;;;;;;5072897;28;20027;-75
2021/03/30 12:11:56;;;;;;;19.98;9.13;;;22.30;73.80;;;;;;5054906;28;20028;-72
2021/03/30 12:14:21;;;;;;;19.27;9.48;;;22.50;72.20;;;;;;5053373;28;20469;-74
2021/03/30 12:16:49;;;;;;;22.23;10.20;;;22.60;72.40;;;;;;5053845;28;20017;-75
2021/03/30 12:19:15;;;;;;;15.98;8.18;;;22.60;73.00;;;;;;5071389;28;20024;-75
2021/03/30 12:21:42;;;;;;;15.20;8.45;;;22.80;71.00;;;;;;5066257;28;20099;-74
2021/03/30 12:24:08;;;;;;;19.33;8.90;;;22.90;69.70;;;;;;5053770;28;20036;-76
2021/03/30 12:26:34;;;;;;;19.02;9.45;;;22.90;69.50;;;;;;5070417;28;20028;-76
2021/03/30 12:29:02;;;;;;;20.92;8.60;;;23.00;68.60;;;;;;5073254;28;20104;-77
2021/03/30 12:31:28;;;;;;;24.70;10.15;;;22.90;67.40;;;;;;5054323;28;20032;-75
2021/03/30 12:33:53;;;;;;;22.08;10.65;;;22.80;70.50;;;;;;5072731;28;20024;-75
2021/03/30 12:36:19;;;;;;;19.67;9.88;;;22.90;70.60;;;;;;5054629;28;20393;-77
2021/03/30 12:38:45;;;;;;;22.02;9.82;;;23.00;69.90;;;;;;5071862;28;20115;-76
2021/03/30 12:41:10;;;;;;;21.58;11.07;;;23.10;69.60;;;;;;5072624;28;20021;-73
2021/03/30 12:43:36;;;;;;;27.73;11.65;;;23.00;69.30;;;;;;5072606;28;20111;-74
2021/03/30 12:46:02;;;;;;;19.70;9.73;;;23.00;69.80;;;;;;5070604;28;20102;-75
2021/03/30 12:48:27;;;;;;;26.20;11.20;;;23.10;69.80;;;;;;5073266;28;20024;-74
2021/03/30 12:50:53;;;;;;;25.80;11.10;;;23.30;69.20;;;;;;5054849;28;20036;-73
2021/03/30 12:53:18;;;;;;;25.08;11.82;;;23.30;69.20;;;;;;5055398;28;20041;-77
2021/03/30 12:55:44;;;;;;;26.02;11.68;;;23.30;70.90;;;;;;5073129;28;20060;-76
2021/03/30 12:58:10;;;;;;;25.48;11.30;;;23.30;69.60;;;;;;5072529;28;20034;-75